Share

Blanco, OK (74528)

McAlester Regional (KMLC) Elev 768 ft | 34.88 °N, 95.78 °W | Change Station

Current weather conditions updated 8 minutes ago

Scattered Clouds
Scattered Clouds
44 °F
Feels Like 42 °F
N
4
Wind Variable Wind from ESE
Sunrise 6:48 AM
Sunset 7:57 PM
Moon Waning Gibbous

Today is forecast to be nearly the same temperature as yesterday.

Pressure 30.11 in
Visibility 10.0 miles
Clouds Few 7000 ft
Scattered Clouds 11000 ft
Windchill 42 °F
Dew Point 35 °F
Humidity 71%
Rainfall 0.00 in
Snow Depth Not available.
UV 0 out of 16
Pollen 9.80 out of 12
Air Quality Not available.
Flu Activity Regional
METAR KMLC 170953Z AUTO 12003KT 10SM FEW070 SCT110 07/02 A3011 RMK AO2 SLP194 T00670017

More Conditions Fewer Conditions

Pressure 30.11 in
Visibility 10.0 miles
Clouds Few 7000 ft
Scattered Clouds 11000 ft
Windchill 42 °F
Dew Point 35 °F
Humidity 71%
Rainfall 0.00 in
Snow Depth Not available.
UV 0 out of 16
Pollen 9.80 out of 12
Air Quality Not available.
Flu Activity Regional
METAR KMLC 170953Z AUTO 12003KT 10SM FEW070 SCT110 07/02 A3011 RMK AO2 SLP194 T00670017

More Conditions Fewer Conditions

10-Day Forecast

Almanac

Astronomy

Apr. 17, 2014 Rise Set
Actual Time 6:48 AM CDT 7:57 PM CDT
Civil Twilight 6:22 AM CDT 8:23 PM CDT
Nautical Twilight 5:51 AM CDT 8:54 PM CDT
Astronomical Twilight 5:19 AM CDT 9:26 PM CDT
Moon 10:38 PM CDT 8:25 AM CDT
Length of Visible Light 14h 00m
Length of Day
13h 08m
Tomorrow will be 2m 3s longer.
Waning Gibbous, 95% of the Moon is Illuminated
Today
Waning Gibbous
Apr 22
Last Quarter
Apr 29
New
May 6
First Quarter
May 14
Full

Today's Extremes

State Highs State Lows

Community

  • Sunset over the Bay
    Sunset over the Bay
  • symphony in blue....
    symphony in blue....
  • Dawn Surprise
    Dawn Surprise
  • Yucca delight
    Yucca delight
  • Sunset inside of the Ocean
    Sunset inside of the Ocean

WunderPhotos

Upload Photos

1,701,899 photos uploaded!

WunderBlogs® & News

Nearby

Snow Depth

Station Depth Elevation
No new snow has been reported.

Coastal Water Temperatures

Place Temperature
No Stations Reporting

Earthquake Activity

City Distance Mag. Time & Date
Guthrie, Oklahoma 118 miles 2.9 12:23 PM CDT
2014-04-13
Guthrie, Oklahoma 118 miles 3.8 12:00 PM CDT
2014-04-13
Edmond, Oklahoma 117 miles 2.5 8:10 AM CDT
2014-04-13
Guthrie, Oklahoma 119 miles 2.5 9:39 PM CDT
2014-04-12
Minimum magnitude displayed is 2.5.

Nearby Weather Stations

Station Location Temp. Windchill Dew Point Humidity Wind Precip. Elev Updated Type
Kinkead Hills, McAlester, OK 40.7 °F 41 °F 35 °F 81% ESE  at  0.0 mph - / hr 774 ft 4:54 AM CDT Normal
MesoWest GRACE , Wardville, OK 47 °F 47 °F - - North  at  - 0.00 in / hr 678 ft 4:05 AM CDT MADIS
MesoWest MCALES , Crowder, OK 48 °F 48 °F - - North  at  - 0.00 in / hr 616 ft 2:55 AM CDT MADIS

Show More Stations Show Fewer Stations

What do you think?

We're not finished. Please let us know what you like, what you don't like, and what you are still missing.